Time;durP1;ratioP1;P1;durP2;ratioP2;P2;SDS_P1;SDS_P2;PMS_P1;PMS_P2;Temp;Humidity;BMP_temperature;BMP_pressure;BME280_temperature;BME280_humidity;BME280_pressure;Samples;Min_cycle;Max_cycle;Signal;HPM_P1;HPM_P2
2022/04/24 00:01:50;;;;;;;5.65;2.30;;;10.10;99.90;;;;;;4990602;28;20030;-66
2022/04/24 00:04:16;;;;;;;8.07;2.78;;;10.00;99.90;;;;;;4989207;28;20034;-66
2022/04/24 00:06:42;;;;;;;7.03;2.67;;;10.00;99.90;;;;;;4984582;28;20022;-66
2022/04/24 00:09:08;;;;;;;9.48;3.40;;;9.90;99.90;;;;;;4994194;28;20034;-66
2022/04/24 00:11:33;;;;;;;8.13;2.95;;;9.80;99.90;;;;;;4991869;28;20022;-67
2022/04/24 00:13:59;;;;;;;7.88;2.80;;;9.70;99.90;;;;;;4991716;28;20022;-66
2022/04/24 00:16:25;;;;;;;6.20;2.50;;;9.60;99.90;;;;;;4982273;28;20030;-66
2022/04/24 00:18:51;;;;;;;6.90;2.95;;;9.60;99.90;;;;;;4993255;28;20030;-66
2022/04/24 00:21:16;;;;;;;8.73;2.83;;;9.50;99.90;;;;;;4991433;28;20018;-66
2022/04/24 00:23:43;;;;;;;6.95;2.75;;;9.50;99.90;;;;;;5020429;28;20022;-66
2022/04/24 00:26:09;;;;;;;8.27;2.65;;;9.40;99.90;;;;;;4986386;28;20102;-66
2022/04/24 00:28:34;;;;;;;7.13;2.85;;;9.40;99.90;;;;;;4987817;28;20113;-66
2022/04/24 00:31:00;;;;;;;7.55;2.85;;;9.40;99.90;;;;;;4988257;28;20053;-66
2022/04/24 00:33:25;;;;;;;9.73;3.17;;;9.30;99.90;;;;;;4991427;28;20633;-66
2022/04/24 00:35:51;;;;;;;7.80;2.50;;;9.30;99.90;;;;;;4995584;28;20113;-66
2022/04/24 00:38:17;;;;;;;8.10;3.38;;;9.30;99.90;;;;;;4989409;28;20228;-66
2022/04/24 00:40:47;;;;;;;9.52;2.80;;;9.10;99.90;;;;;;4990603;28;20096;-66
2022/04/24 00:43:12;;;;;;;7.65;2.80;;;9.10;99.90;;;;;;4988254;28;20158;-66
2022/04/24 00:45:38;;;;;;;11.30;3.17;;;9.10;99.90;;;;;;4985863;28;20105;-66
2022/04/24 00:48:04;;;;;;;6.43;2.88;;;9.10;99.90;;;;;;4990372;28;20502;-66
2022/04/24 00:50:30;;;;;;;7.45;3.33;;;9.00;99.90;;;;;;4984737;28;20022;-66
2022/04/24 00:52:55;;;;;;;11.38;3.65;;;8.90;99.90;;;;;;4989900;28;20455;-66
2022/04/24 00:55:23;;;;;;;8.25;2.92;;;8.70;99.90;;;;;;4988491;28;20204;-66
2022/04/24 00:57:49;;;;;;;8.65;3.25;;;8.80;99.90;;;;;;4986721;28;20099;-66
2022/04/24 01:00:16;;;;;;;11.43;3.65;;;8.70;99.90;;;;;;4982272;28;20041;-66
2022/04/24 01:02:41;;;;;;;7.97;2.72;;;8.80;99.90;;;;;;4990343;28;20033;-66
2022/04/24 01:05:08;;;;;;;6.50;2.70;;;8.80;99.90;;;;;;4986023;28;20019;-66
2022/04/24 01:07:34;;;;;;;6.93;2.47;;;8.70;99.90;;;;;;4988593;28;20022;-66
2022/04/24 01:10:00;;;;;;;7.63;3.08;;;8.60;99.90;;;;;;4987546;28;20097;-66
2022/04/24 01:12:25;;;;;;;8.40;3.28;;;8.50;99.90;;;;;;4991154;28;20097;-66
2022/04/24 01:14:51;;;;;;;7.68;2.83;;;8.40;99.90;;;;;;4990512;28;20045;-66
2022/04/24 01:17:17;;;;;;;7.35;3.05;;;8.40;99.90;;;;;;4985023;28;20031;-66
2022/04/24 01:19:43;;;;;;;7.15;2.70;;;8.30;99.90;;;;;;4984777;28;20063;-66
2022/04/24 01:22:09;;;;;;;9.73;3.35;;;8.30;99.90;;;;;;5017265;28;20125;-66
2022/04/24 01:24:34;;;;;;;11.25;3.45;;;8.20;99.90;;;;;;4984802;28;20561;-66
2022/04/24 01:27:01;;;;;;;9.27;3.40;;;8.20;99.90;;;;;;4990100;28;20068;-66
2022/04/24 01:29:26;;;;;;;7.68;3.10;;;8.20;99.90;;;;;;4982561;28;20073;-66
2022/04/24 01:31:52;;;;;;;6.45;2.28;;;8.10;99.90;;;;;;4984396;28;20045;-66
2022/04/24 01:34:19;;;;;;;8.52;3.60;;;8.00;99.90;;;;;;4983209;28;20145;-66
2022/04/24 01:36:45;;;;;;;6.40;3.00;;;8.10;99.90;;;;;;4984418;28;20029;-66
2022/04/24 01:39:11;;;;;;;8.45;3.25;;;8.00;99.90;;;;;;4986181;28;20039;-66
2022/04/24 01:41:37;;;;;;;7.25;2.65;;;8.10;99.90;;;;;;4987777;28;20456;-66
2022/04/24 01:44:03;;;;;;;8.18;3.38;;;8.00;99.90;;;;;;4985932;28;20022;-66
2022/04/24 01:46:29;;;;;;;7.45;3.25;;;7.90;99.90;;;;;;4985849;28;20066;-66
2022/04/24 01:48:54;;;;;;;11.32;4.22;;;7.90;99.90;;;;;;4988005;28;20113;-66
2022/04/24 01:51:20;;;;;;;8.63;3.00;;;8.00;99.90;;;;;;4986663;28;20033;-66
2022/04/24 01:53:46;;;;;;;12.15;3.50;;;7.90;99.90;;;;;;4991387;28;20026;-66
2022/04/24 01:56:12;;;;;;;6.22;2.85;;;8.00;99.90;;;;;;4991031;28;20029;-66
2022/04/24 01:58:38;;;;;;;11.65;4.63;;;7.90;99.90;;;;;;4985877;28;20054;-66
2022/04/24 02:01:05;;;;;;;8.82;3.47;;;7.90;99.90;;;;;;4989348;28;20062;-66
2022/04/24 02:03:32;;;;;;;11.50;4.00;;;7.90;99.90;;;;;;4985345;28;20444;-66
2022/04/24 02:05:58;;;;;;;8.55;3.22;;;7.90;99.90;;;;;;4989654;28;20169;-66
2022/04/24 02:08:24;;;;;;;9.30;3.13;;;8.00;99.90;;;;;;4988611;28;20149;-66
2022/04/24 02:10:50;;;;;;;8.30;3.28;;;8.00;99.90;;;;;;4989058;28;20159;-66
2022/04/24 02:13:17;;;;;;;9.07;3.47;;;8.00;99.90;;;;;;4987660;28;20026;-66
2022/04/24 02:15:43;;;;;;;6.25;2.97;;;7.90;99.90;;;;;;4982470;28;20041;-66
2022/04/24 02:18:09;;;;;;;7.60;2.58;;;7.80;99.90;;;;;;4986161;28;20030;-66
2022/04/24 02:20:35;;;;;;;14.20;4.05;;;7.70;99.90;;;;;;4990780;28;20018;-66
2022/04/24 02:23:01;;;;;;;7.82;3.13;;;7.60;99.90;;;;;;4988968;28;20056;-66
2022/04/24 02:25:28;;;;;;;9.32;3.33;;;7.50;99.90;;;;;;4990148;28;20049;-66
2022/04/24 02:27:55;;;;;;;8.90;2.95;;;7.60;99.90;;;;;;4984551;28;20026;-66
2022/04/24 02:30:22;;;;;;;6.15;2.42;;;7.50;99.90;;;;;;4991220;28;20090;-66
2022/04/24 02:32:48;;;;;;;8.82;3.58;;;7.50;99.90;;;;;;4993647;28;20057;-66
2022/04/24 02:35:13;;;;;;;9.75;3.40;;;7.50;99.90;;;;;;4995153;28;20062;-66
2022/04/24 02:37:39;;;;;;;8.27;3.53;;;7.60;99.90;;;;;;4991868;28;20050;-66
2022/04/24 02:40:09;;;;;;;8.00;3.33;;;7.60;99.90;;;;;;4989871;28;20101;-66
2022/04/24 02:42:36;;;;;;;10.10;3.63;;;7.70;99.90;;;;;;4986761;28;20036;-66
2022/04/24 02:45:06;;;;;;;9.82;3.60;;;7.70;99.90;;;;;;4992603;28;20026;-66
2022/04/24 02:47:31;;;;;;;7.45;3.17;;;7.70;99.90;;;;;;4986624;28;20490;-66
2022/04/24 02:49:57;;;;;;;8.57;3.63;;;7.70;99.90;;;;;;4987171;28;20049;-66
2022/04/24 02:52:23;;;;;;;9.40;4.07;;;7.70;99.90;;;;;;4987614;28;20041;-66
2022/04/24 02:54:48;;;;;;;9.23;3.20;;;7.70;99.90;;;;;;4986349;28;20031;-66
2022/04/24 02:57:14;;;;;;;8.98;3.45;;;7.70;99.90;;;;;;4982748;28;20150;-66
2022/04/24 02:59:44;;;;;;;8.15;3.33;;;7.60;99.90;;;;;;4984601;28;20070;-66
2022/04/24 03:02:10;;;;;;;9.13;3.45;;;7.40;99.90;;;;;;5020104;28;20065;-66
2022/04/24 03:04:35;;;;;;;9.77;3.28;;;7.40;99.90;;;;;;4988291;28;20457;-66
2022/04/24 03:07:01;;;;;;;12.57;4.72;;;7.40;99.90;;;;;;4988262;28;20015;-66
2022/04/24 03:09:27;;;;;;;8.05;2.92;;;7.40;99.90;;;;;;4987878;28;20105;-66
2022/04/24 03:11:52;;;;;;;8.02;2.97;;;7.30;99.90;;;;;;4988139;28;20394;-66
2022/04/24 03:14:18;;;;;;;12.23;4.03;;;7.30;99.90;;;;;;4990310;28;20029;-66
2022/04/24 03:16:43;;;;;;;8.63;3.78;;;7.30;99.90;;;;;;4985292;28;20053;-66
2022/04/24 03:19:09;;;;;;;5.88;2.28;;;7.30;99.90;;;;;;4991649;28;20434;-66
2022/04/24 03:21:34;;;;;;;8.05;3.10;;;7.30;99.90;;;;;;4987793;28;20397;-66
2022/04/24 03:24:00;;;;;;;9.63;3.45;;;7.30;99.90;;;;;;4987552;28;20081;-66
2022/04/24 03:26:26;;;;;;;11.38;3.88;;;7.20;99.90;;;;;;4987824;28;20023;-66
2022/04/24 03:28:51;;;;;;;9.05;3.28;;;7.20;99.90;;;;;;4983095;28;20836;-66
2022/04/24 03:31:17;;;;;;;13.50;4.78;;;7.10;99.90;;;;;;4986350;28;20093;-66
2022/04/24 03:33:43;;;;;;;9.35;4.10;;;7.00;99.90;;;;;;4987103;28;20089;-64
2022/04/24 03:36:09;;;;;;;9.32;3.47;;;7.10;99.90;;;;;;4988017;28;20026;-65
2022/04/24 03:38:35;;;;;;;9.27;3.20;;;6.90;99.90;;;;;;4983986;28;20467;-66
2022/04/24 03:41:01;;;;;;;12.98;4.40;;;6.90;99.90;;;;;;4987971;28;20656;-66
2022/04/24 03:43:27;;;;;;;10.23;3.67;;;6.90;99.90;;;;;;4987131;28;20030;-66
2022/04/24 03:45:52;;;;;;;9.05;3.88;;;6.90;99.90;;;;;;4988454;28;20026;-66
2022/04/24 03:48:18;;;;;;;8.25;3.35;;;6.80;99.90;;;;;;4988353;28;20442;-66
2022/04/24 03:50:44;;;;;;;7.20;3.03;;;6.70;99.90;;;;;;4987406;28;20022;-66
2022/04/24 03:53:10;;;;;;;6.75;3.00;;;6.60;99.90;;;;;;4987626;28;20414;-66
2022/04/24 03:55:35;;;;;;;10.32;3.60;;;6.50;99.90;;;;;;4989675;28;20025;-66
2022/04/24 03:58:01;;;;;;;11.30;3.90;;;6.60;99.90;;;;;;4987302;28;20026;-66
2022/04/24 04:00:26;;;;;;;6.90;2.42;;;6.50;99.90;;;;;;4986320;28;20074;-66
2022/04/24 04:02:53;;;;;;;12.55;3.60;;;6.50;99.90;;;;;;4986574;28;20568;-66
2022/04/24 04:05:20;;;;;;;11.00;4.00;;;6.50;99.90;;;;;;4988390;28;20018;-66
2022/04/24 04:07:46;;;;;;;9.25;3.15;;;6.40;99.90;;;;;;4984493;28;20018;-66
2022/04/24 04:10:12;;;;;;;10.68;3.50;;;6.20;99.90;;;;;;4985281;28;20786;-65
2022/04/24 04:12:37;;;;;;;11.80;4.13;;;6.30;99.90;;;;;;4985944;28;20061;-66
2022/04/24 04:15:05;;;;;;;10.35;3.17;;;6.30;99.90;;;;;;4987454;28;20057;-66
2022/04/24 04:17:30;;;;;;;6.88;3.45;;;6.20;99.90;;;;;;4984343;28;20085;-66
2022/04/24 04:19:56;;;;;;;9.85;3.55;;;6.20;99.90;;;;;;4985326;28;20046;-66
2022/04/24 04:22:22;;;;;;;11.57;4.15;;;6.20;99.90;;;;;;4983994;28;20114;-66
2022/04/24 04:24:47;;;;;;;6.88;3.10;;;6.20;99.90;;;;;;4982956;28;20027;-66
2022/04/24 04:27:13;;;;;;;9.40;3.67;;;6.20;99.90;;;;;;4983292;28;20029;-66
2022/04/24 04:29:39;;;;;;;13.18;3.85;;;6.10;99.90;;;;;;4985455;28;20116;-66
2022/04/24 04:32:05;;;;;;;11.85;4.53;;;6.10;99.90;;;;;;4985247;28;20058;-66
2022/04/24 04:34:30;;;;;;;10.20;3.75;;;6.10;99.90;;;;;;4984874;28;20093;-66
2022/04/24 04:36:56;;;;;;;15.45;4.68;;;6.10;99.90;;;;;;4986375;28;20026;-66
2022/04/24 04:39:22;;;;;;;10.85;4.47;;;6.10;99.90;;;;;;5019652;28;20038;-66
2022/04/24 04:41:47;;;;;;;8.80;3.45;;;6.10;99.90;;;;;;4982062;28;20034;-66
2022/04/24 04:44:14;;;;;;;8.23;3.38;;;6.10;99.90;;;;;;4984909;28;20101;-66
2022/04/24 04:46:39;;;;;;;8.70;3.92;;;6.10;99.90;;;;;;5016978;28;20029;-66
2022/04/24 04:49:05;;;;;;;9.60;3.72;;;6.00;99.90;;;;;;4986398;28;20022;-66
2022/04/24 04:51:31;;;;;;;8.93;3.78;;;6.10;99.90;;;;;;4984279;28;20030;-66
2022/04/24 04:53:56;;;;;;;10.45;3.85;;;6.10;99.90;;;;;;4985038;28;20041;-66
2022/04/24 04:56:23;;;;;;;8.57;3.58;;;6.20;99.90;;;;;;4985448;28;20427;-66
2022/04/24 04:58:49;;;;;;;7.40;2.88;;;6.20;99.90;;;;;;4978570;28;20084;-66
2022/04/24 05:01:15;;;;;;;7.65;3.15;;;6.10;99.90;;;;;;4985424;28;20031;-66
2022/04/24 05:03:41;;;;;;;11.02;3.60;;;6.20;99.90;;;;;;4984230;28;20026;-66
2022/04/24 05:06:06;;;;;;;13.13;4.15;;;6.10;99.90;;;;;;4982687;28;20027;-66
2022/04/24 05:08:32;;;;;;;9.45;4.38;;;6.20;99.90;;;;;;4983341;28;20089;-66
2022/04/24 05:10:59;;;;;;;7.53;3.97;;;6.20;99.90;;;;;;4985248;28;20100;-66
2022/04/24 05:13:25;;;;;;;12.05;4.95;;;6.30;99.90;;;;;;4984568;28;20392;-66
2022/04/24 05:15:50;;;;;;;15.68;5.25;;;6.40;99.90;;;;;;4986278;28;20030;-66
2022/04/24 05:18:16;;;;;;;11.43;3.67;;;6.40;99.90;;;;;;4987575;28;20052;-66
2022/04/24 05:20:43;;;;;;;7.95;3.75;;;6.40;99.90;;;;;;4985139;28;20041;-66
2022/04/24 05:23:09;;;;;;;9.60;3.53;;;6.60;99.90;;;;;;4986550;28;20455;-66
2022/04/24 05:25:35;;;;;;;9.13;3.70;;;6.60;99.90;;;;;;4985096;28;20105;-66
2022/04/24 05:28:02;;;;;;;10.10;4.05;;;6.60;99.90;;;;;;4983750;28;20094;-66
2022/04/24 05:30:28;;;;;;;9.20;3.55;;;6.80;99.90;;;;;;4983569;28;20046;-66
2022/04/24 05:32:55;;;;;;;6.90;2.60;;;6.70;99.90;;;;;;4980798;28;20096;-66
2022/04/24 05:35:21;;;;;;;10.13;4.70;;;6.80;99.90;;;;;;4984884;28;20030;-66
2022/04/24 05:37:47;;;;;;;9.57;3.85;;;6.90;99.90;;;;;;4982774;28;20038;-66
2022/04/24 05:40:13;;;;;;;10.02;3.65;;;7.00;99.90;;;;;;4982644;28;20033;-66
2022/04/24 05:42:52;;;;;;;9.45;4.57;;;7.10;99.90;;;;;;4982261;28;20031;-66
2022/04/24 05:45:22;;;;;;;10.52;4.55;;;7.30;99.90;;;;;;4981956;28;20089;-66
2022/04/24 05:47:49;;;;;;;9.82;4.05;;;7.50;99.90;;;;;;4982997;28;20080;-66
2022/04/24 05:50:15;;;;;;;13.20;4.90;;;7.50;99.90;;;;;;4986022;28;20026;-66
2022/04/24 05:52:41;;;;;;;10.93;3.97;;;7.60;99.90;;;;;;4984767;28;20030;-66
2022/04/24 05:55:08;;;;;;;12.13;4.28;;;7.70;99.90;;;;;;4983488;28;20378;-66
2022/04/24 05:57:35;;;;;;;9.82;4.80;;;7.70;99.90;;;;;;4984447;28;20073;-66
2022/04/24 06:00:01;;;;;;;12.30;5.07;;;7.80;99.90;;;;;;4985008;28;20031;-66
2022/04/24 06:02:26;;;;;;;10.48;4.38;;;7.90;99.90;;;;;;4983410;28;20045;-66
2022/04/24 06:04:53;;;;;;;9.65;4.20;;;8.00;99.90;;;;;;4985034;28;20037;-66
2022/04/24 06:07:19;;;;;;;10.15;3.95;;;8.10;99.90;;;;;;4985038;28;20584;-66
2022/04/24 06:09:45;;;;;;;10.02;3.92;;;8.30;99.90;;;;;;4984426;28;20046;-66
2022/04/24 06:12:10;;;;;;;7.32;2.90;;;8.40;99.90;;;;;;4980991;28;20022;-66
2022/04/24 06:14:36;;;;;;;6.40;2.95;;;8.50;99.90;;;;;;4984030;28;20041;-66
2022/04/24 06:17:03;;;;;;;8.57;2.95;;;8.60;99.90;;;;;;4979318;28;20037;-66
2022/04/24 06:19:29;;;;;;;9.60;3.03;;;8.70;99.90;;;;;;4982880;28;20117;-66
2022/04/24 06:21:54;;;;;;;9.02;4.00;;;8.80;99.90;;;;;;4984217;28;20054;-66
2022/04/24 06:24:20;;;;;;;5.63;2.42;;;9.00;99.90;;;;;;4981164;28;20084;-66
2022/04/24 06:26:46;;;;;;;6.28;2.67;;;9.10;99.90;;;;;;4981802;28;20019;-66
2022/04/24 06:29:12;;;;;;;7.95;3.20;;;9.20;99.90;;;;;;4982657;28;20027;-66
2022/04/24 06:31:37;;;;;;;7.68;3.22;;;9.30;99.90;;;;;;4981593;28;20969;-66
2022/04/24 06:34:03;;;;;;;6.88;2.45;;;9.40;99.90;;;;;;4983572;28;20030;-66
2022/04/24 06:36:28;;;;;;;7.22;2.58;;;9.50;99.90;;;;;;4992612;28;20394;-66
2022/04/24 06:38:54;;;;;;;7.30;3.78;;;9.50;99.90;;;;;;4983691;28;20034;-66
2022/04/24 06:41:20;;;;;;;4.18;1.98;;;9.60;99.90;;;;;;4984912;28;20724;-66
2022/04/24 06:43:45;;;;;;;10.75;3.88;;;9.70;99.90;;;;;;4982701;28;20033;-66
2022/04/24 06:46:11;;;;;;;8.88;3.45;;;9.70;99.90;;;;;;4984061;28;20649;-66
2022/04/24 06:48:36;;;;;;;8.88;3.75;;;9.90;99.90;;;;;;4985369;28;20031;-66
2022/04/24 06:51:02;;;;;;;11.95;2.05;;;10.00;99.90;;;;;;4982268;28;20028;-66
2022/04/24 06:53:28;;;;;;;5.82;2.60;;;10.00;99.90;;;;;;4983088;28;20640;-62
2022/04/24 06:55:54;;;;;;;3.85;1.77;;;10.10;99.90;;;;;;4983273;28;20031;-62
2022/04/24 06:58:20;;;;;;;8.63;3.78;;;10.20;99.90;;;;;;4983069;28;20026;-62
2022/04/24 07:00:47;;;;;;;9.40;3.78;;;10.30;99.90;;;;;;4984984;28;20027;-62
2022/04/24 07:03:21;;;;;;;8.77;3.55;;;10.40;99.90;;;;;;4986513;28;20023;-61
2022/04/24 07:05:53;;;;;;;7.03;2.72;;;10.50;99.90;;;;;;4983596;28;20034;-62
2022/04/24 07:08:19;;;;;;;8.63;3.15;;;10.50;99.90;;;;;;4988839;28;20025;-62
2022/04/24 07:10:45;;;;;;;6.43;2.58;;;10.60;99.90;;;;;;5018176;28;20023;-64
2022/04/24 07:13:11;;;;;;;11.25;3.17;;;10.70;99.90;;;;;;4986825;28;20089;-64
2022/04/24 07:15:38;;;;;;;8.05;2.80;;;10.70;99.90;;;;;;4987639;28;20670;-66
2022/04/24 07:18:05;;;;;;;9.15;3.92;;;10.90;99.90;;;;;;4988673;28;20026;-62
2022/04/24 07:20:31;;;;;;;5.25;2.17;;;11.00;99.90;;;;;;4991792;28;20382;-62
2022/04/24 07:23:01;;;;;;;10.10;3.65;;;11.10;99.90;;;;;;4989430;28;20669;-62
2022/04/24 07:25:31;;;;;;;9.48;2.92;;;11.00;99.90;;;;;;4983841;28;20117;-62
2022/04/24 07:27:57;;;;;;;10.07;2.95;;;11.10;99.90;;;;;;4988653;28;20512;-62
2022/04/24 07:30:24;;;;;;;7.70;3.20;;;11.20;99.90;;;;;;4988204;28;20096;-62
2022/04/24 07:32:50;;;;;;;10.38;4.25;;;11.30;99.90;;;;;;4988241;28;20517;-62
2022/04/24 07:35:21;;;;;;;10.02;3.75;;;11.40;99.90;;;;;;4989346;28;20037;-62
2022/04/24 07:37:47;;;;;;;8.85;3.58;;;11.50;99.90;;;;;;4984392;28;20098;-62
2022/04/24 07:40:16;;;;;;;10.15;4.65;;;11.60;99.90;;;;;;4989723;28;20042;-62
2022/04/24 07:42:56;;;;;;;10.45;3.35;;;11.50;99.90;;;;;;4988966;28;20057;-62
2022/04/24 07:45:26;;;;;;;10.10;3.35;;;11.60;99.90;;;;;;4985605;28;20026;-62
2022/04/24 07:47:54;;;;;;;9.70;3.80;;;11.80;99.90;;;;;;4988190;28;20030;-62
2022/04/24 07:50:22;;;;;;;11.45;3.92;;;12.00;99.90;;;;;;5003356;28;20449;-62
2022/04/24 07:52:48;;;;;;;6.82;2.60;;;12.00;99.90;;;;;;4987022;28;20041;-62
2022/04/24 07:55:20;;;;;;;11.85;3.00;;;12.10;99.90;;;;;;4986527;28;20034;-62
2022/04/24 07:57:47;;;;;;;9.10;3.75;;;12.30;99.90;;;;;;4982616;28;20277;-62
2022/04/24 08:00:13;;;;;;;7.95;2.95;;;12.50;99.90;;;;;;4990377;28;20061;-62
2022/04/24 08:02:46;;;;;;;9.98;4.70;;;12.50;99.90;;;;;;4986636;28;20030;-62
2022/04/24 08:05:18;;;;;;;11.98;3.97;;;12.50;99.90;;;;;;4988999;28;20350;-62
2022/04/24 08:07:43;;;;;;;10.90;4.40;;;12.60;99.90;;;;;;4985777;28;20054;-62
2022/04/24 08:10:09;;;;;;;8.18;3.30;;;12.60;99.90;;;;;;4988803;28;20060;-62
2022/04/24 08:12:34;;;;;;;9.18;3.72;;;12.60;99.90;;;;;;4988338;28;20037;-62
2022/04/24 08:15:00;;;;;;;10.95;4.50;;;13.00;99.90;;;;;;4987826;28;20061;-62
2022/04/24 08:17:26;;;;;;;10.90;4.25;;;13.00;99.90;;;;;;4986022;28;20117;-62
2022/04/24 08:19:51;;;;;;;6.93;2.65;;;13.00;99.90;;;;;;4989128;28;20113;-62
2022/04/24 08:22:17;;;;;;;9.50;4.18;;;13.60;99.90;;;;;;4987458;28;20102;-62
2022/04/24 08:24:43;;;;;;;11.30;3.67;;;13.80;99.90;;;;;;4984735;28;20040;-62
2022/04/24 08:27:09;;;;;;;7.88;2.97;;;14.40;99.90;;;;;;4989422;28;20146;-62
2022/04/24 08:29:34;;;;;;;7.82;3.05;;;14.80;99.90;;;;;;4986774;28;20026;-62
2022/04/24 08:32:00;;;;;;;11.70;4.15;;;14.60;99.90;;;;;;4986300;28;20046;-62
2022/04/24 08:34:25;;;;;;;8.40;3.08;;;14.30;99.90;;;;;;4985429;28;20030;-62
2022/04/24 08:36:51;;;;;;;9.98;3.58;;;15.40;98.80;;;;;;4988152;28;20034;-63
2022/04/24 08:39:16;;;;;;;12.60;3.38;;;16.60;98.20;;;;;;4992182;28;20113;-63
2022/04/24 08:41:43;;;;;;;7.85;3.25;;;17.00;96.80;;;;;;4988082;28;20014;-63
2022/04/24 08:44:09;;;;;;;11.27;4.03;;;16.50;96.60;;;;;;5020329;28;20057;-63
2022/04/24 08:46:35;;;;;;;11.30;4.45;;;16.00;96.20;;;;;;4984030;28;20066;-63
2022/04/24 08:49:03;;;;;;;9.75;3.80;;;16.50;96.50;;;;;;4986728;28;20027;-62
2022/04/24 08:51:29;;;;;;;10.10;3.58;;;16.50;96.00;;;;;;4985734;28;20026;-62
2022/04/24 08:53:56;;;;;;;10.60;3.97;;;15.80;96.40;;;;;;4985096;28;20713;-62
2022/04/24 08:56:22;;;;;;;10.63;4.28;;;15.80;97.00;;;;;;4986750;28;20034;-62
2022/04/24 08:58:48;;;;;;;9.50;3.25;;;16.60;95.90;;;;;;4984801;28;20505;-63
2022/04/24 09:01:13;;;;;;;19.08;5.20;;;15.70;96.00;;;;;;4986811;28;20066;-63
2022/04/24 09:03:39;;;;;;;10.27;4.28;;;15.60;96.40;;;;;;4983598;28;20064;-63
2022/04/24 09:06:05;;;;;;;11.38;3.38;;;15.60;96.20;;;;;;4986770;28;20538;-62
2022/04/24 09:08:35;;;;;;;8.25;3.20;;;16.30;96.60;;;;;;4985669;28;20072;-62
2022/04/24 09:11:01;;;;;;;9.60;3.75;;;17.30;95.20;;;;;;4984270;28;20030;-62
2022/04/24 09:16:19;;;;;;;11.18;3.88;;;17.40;94.50;;;;;;4984791;28;20061;-63
2022/04/24 09:18:48;;;;;;;8.90;3.60;;;18.70;92.80;;;;;;4983138;28;20030;-63
2022/04/24 09:21:13;;;;;;;10.23;3.90;;;17.30;93.90;;;;;;4984552;28;20043;-63
2022/04/24 09:23:43;;;;;;;9.95;4.35;;;17.10;94.20;;;;;;4980231;28;20357;-63
2022/04/24 09:26:16;;;;;;;11.30;3.63;;;16.90;93.90;;;;;;4983667;28;20054;-63
2022/04/24 09:28:42;;;;;;;9.02;4.07;;;17.20;94.40;;;;;;4987891;28;20041;-63
2022/04/24 09:31:09;;;;;;;10.20;4.25;;;17.60;93.10;;;;;;4981581;28;20050;-63
2022/04/24 09:33:44;;;;;;;12.77;5.53;;;17.30;93.10;;;;;;4985636;28;20402;-63
2022/04/24 09:36:11;;;;;;;10.52;4.40;;;16.80;94.00;;;;;;4988849;28;20036;-63
2022/04/24 09:38:44;;;;;;;10.48;5.13;;;16.80;94.20;;;;;;4988204;28;20121;-63
2022/04/24 09:41:23;;;;;;;11.85;4.90;;;17.10;93.30;;;;;;4983879;28;20022;-63
2022/04/24 09:43:50;;;;;;;11.18;4.25;;;17.90;93.60;;;;;;4988508;28;20060;-63
2022/04/24 09:46:29;;;;;;;9.93;3.60;;;18.30;92.20;;;;;;4989493;28;20030;-63
2022/04/24 09:49:00;;;;;;;10.82;4.05;;;19.60;91.70;;;;;;4981970;28;20037;-63
2022/04/24 09:51:26;;;;;;;9.63;4.05;;;19.20;90.40;;;;;;4986915;28;20488;-63
2022/04/24 09:53:57;;;;;;;10.85;4.07;;;19.80;90.70;;;;;;4989553;28;20042;-63
2022/04/24 09:56:26;;;;;;;12.18;4.97;;;19.80;88.30;;;;;;4987267;28;20053;-63
2022/04/24 09:58:52;;;;;;;11.75;4.63;;;19.00;90.40;;;;;;4987706;28;20478;-63
2022/04/24 10:01:18;;;;;;;10.25;3.72;;;18.40;91.00;;;;;;4991084;28;20121;-63
2022/04/24 10:03:45;;;;;;;10.45;3.72;;;19.20;90.60;;;;;;4989201;28;20033;-63
2022/04/24 10:06:11;;;;;;;9.25;3.45;;;18.70;90.80;;;;;;4989402;28;20038;-63
2022/04/24 10:08:38;;;;;;;10.55;4.57;;;19.30;89.10;;;;;;4990438;28;20026;-63
2022/04/24 10:11:07;;;;;;;10.63;4.18;;;18.80;89.80;;;;;;4987379;28;20034;-63
2022/04/24 10:13:38;;;;;;;10.32;4.03;;;18.30;90.20;;;;;;4988837;28;20049;-63
2022/04/24 10:16:35;;;;;;;8.85;3.33;;;18.00;90.50;;;;;;4987710;28;20034;-63
2022/04/24 10:19:23;;;;;;;11.43;4.28;;;18.80;91.10;;;;;;5022118;28;20034;-63
2022/04/24 10:21:58;;;;;;;10.68;3.67;;;20.00;87.80;;;;;;4987742;28;20034;-63
2022/04/24 10:24:23;;;;;;;9.40;4.15;;;19.70;88.50;;;;;;4980133;28;20027;-63
2022/04/24 10:26:54;;;;;;;10.30;4.15;;;19.20;88.00;;;;;;4988948;28;20045;-63
2022/04/24 10:29:19;;;;;;;11.75;3.95;;;18.60;90.70;;;;;;4987895;28;20050;-63
2022/04/24 10:31:47;;;;;;;10.95;4.72;;;18.90;87.90;;;;;;4989287;28;20439;-63
2022/04/24 10:34:14;;;;;;;10.77;4.20;;;18.20;89.10;;;;;;4987089;28;20038;-63
2022/04/24 10:36:59;;;;;;;11.52;4.47;;;19.10;88.00;;;;;;4989400;28;20486;-63
2022/04/24 10:39:28;;;;;;;10.60;4.18;;;19.70;87.70;;;;;;4987182;28;20022;-63
2022/04/24 10:41:55;;;;;;;8.25;3.40;;;19.30;86.20;;;;;;4996228;28;20027;-63
2022/04/24 10:44:22;;;;;;;9.07;3.58;;;19.90;88.10;;;;;;4991554;28;20146;-63
2022/04/24 10:46:48;;;;;;;9.65;3.13;;;21.40;85.30;;;;;;4991663;28;20033;-63
2022/04/24 10:49:16;;;;;;;10.50;4.20;;;22.20;82.10;;;;;;4993986;28;20545;-63
2022/04/24 10:51:44;;;;;;;11.55;4.60;;;21.10;83.00;;;;;;4992899;28;20033;-63
2022/04/24 10:54:13;;;;;;;10.25;3.67;;;20.60;82.50;;;;;;4993338;28;20022;-63
2022/04/24 10:56:49;;;;;;;11.25;4.45;;;21.70;82.70;;;;;;4990014;28;20109;-62
2022/04/24 10:59:17;;;;;;;9.77;4.22;;;20.90;81.50;;;;;;4991316;28;20034;-63
2022/04/24 11:01:50;;;;;;;10.07;3.40;;;22.00;79.60;;;;;;4990440;28;20019;-63
2022/04/24 11:04:16;;;;;;;10.55;3.78;;;22.00;80.90;;;;;;4990435;28;20019;-63
2022/04/24 11:06:55;;;;;;;9.45;3.33;;;22.10;77.70;;;;;;4991521;28;20034;-63
2022/04/24 11:09:22;;;;;;;9.23;3.77;;;21.00;78.30;;;;;;4977103;28;20026;-63
2022/04/24 11:11:56;;;;;;;9.30;3.80;;;20.50;80.50;;;;;;4991083;28;20030;-63
2022/04/24 11:14:24;;;;;;;9.98;4.18;;;21.40;79.20;;;;;;4987057;28;20065;-63
2022/04/24 11:16:54;;;;;;;10.60;3.72;;;20.40;77.80;;;;;;4989478;28;20046;-63
2022/04/24 11:19:21;;;;;;;11.70;4.00;;;21.90;79.10;;;;;;4992845;28;20110;-63
2022/04/24 11:21:47;;;;;;;10.55;4.20;;;23.20;74.70;;;;;;4987162;28;20427;-63
2022/04/24 11:24:17;;;;;;;10.90;4.10;;;21.80;74.80;;;;;;4999107;28;20042;-63
2022/04/24 11:26:49;;;;;;;8.15;2.95;;;20.50;84.60;;;;;;4991510;28;20032;-63
2022/04/24 11:29:15;;;;;;;10.32;3.90;;;20.20;78.80;;;;;;4985491;28;20108;-63
2022/04/24 11:31:52;;;;;;;10.27;4.32;;;21.10;77.00;;;;;;4992734;28;20506;-63
2022/04/24 11:34:19;;;;;;;9.60;3.97;;;;;;;;;;4991988;28;20050;-63
2022/04/24 11:36:46;;;;;;;8.93;3.40;;;23.40;72.20;;;;;;4992114;28;20042;-63
2022/04/24 11:39:12;;;;;;;8.77;3.53;;;22.80;74.00;;;;;;4989725;28;20041;-63
2022/04/24 11:41:39;;;;;;;9.63;3.88;;;21.90;73.20;;;;;;4988741;28;20030;-63
2022/04/24 11:52:34;;;;;;;10.43;4.03;;;20.60;76.30;;;;;;4990953;28;20037;-63
2022/04/24 11:55:00;;;;;;;10.50;3.97;;;21.10;76.20;;;;;;4987126;28;20114;-63
2022/04/24 11:57:26;;;;;;;10.15;3.60;;;19.40;78.50;;;;;;5020939;28;20413;-63
2022/04/24 11:59:54;;;;;;;10.68;4.38;;;18.80;81.80;;;;;;4990392;28;20042;-63
2022/04/24 12:02:26;;;;;;;9.20;3.00;;;19.10;82.30;;;;;;4980412;28;20053;-63
2022/04/24 12:04:53;;;;;;;11.70;3.83;;;20.00;79.60;;;;;;4989953;28;20029;-63
2022/04/24 12:07:18;;;;;;;10.95;4.25;;;19.70;79.60;;;;;;4991400;28;20039;-63
2022/04/24 12:09:44;;;;;;;12.43;4.38;;;18.70;80.90;;;;;;4990350;28;20038;-63
2022/04/24 12:12:13;;;;;;;9.18;3.25;;;18.20;82.20;;;;;;4991158;28;20111;-62
2022/04/24 12:14:41;;;;;;;9.65;3.80;;;18.30;82.90;;;;;;5011013;28;20192;-62
2022/04/24 12:17:09;;;;;;;11.48;4.38;;;18.50;82.60;;;;;;4989664;28;20033;-62
2022/04/24 12:19:36;;;;;;;10.48;4.90;;;18.40;83.00;;;;;;4987591;28;20037;-62
2022/04/24 12:22:12;;;;;;;11.45;3.95;;;18.80;81.70;;;;;;5005213;28;20026;-62
2022/04/24 12:24:47;;;;;;;14.15;4.43;;;18.70;82.80;;;;;;4988526;28;20030;-62
2022/04/24 12:27:15;;;;;;;9.27;3.78;;;18.20;83.70;;;;;;4983756;28;20108;-62
2022/04/24 12:29:48;;;;;;;9.43;4.38;;;19.50;82.70;;;;;;4988400;28;20332;-62
2022/04/24 12:32:15;;;;;;;8.73;3.33;;;19.60;80.70;;;;;;4986395;28;20061;-62
2022/04/24 12:34:43;;;;;;;8.38;3.67;;;19.40;82.50;;;;;;4987377;28;20153;-62
2022/04/24 12:37:09;;;;;;;7.40;3.05;;;20.40;80.70;;;;;;4982936;28;20123;-62
2022/04/24 12:39:36;;;;;;;8.35;3.10;;;21.10;79.80;;;;;;4987679;28;20442;-62
2022/04/24 12:42:17;;;;;;;10.88;4.47;;;21.50;77.80;;;;;;4988763;28;20494;-62
2022/04/24 12:44:43;;;;;;;10.77;4.50;;;20.70;78.40;;;;;;5001317;28;20022;-62
2022/04/24 12:47:09;;;;;;;10.15;3.95;;;19.70;79.80;;;;;;4998626;28;20030;-62
2022/04/24 12:49:35;;;;;;;9.38;3.13;;;19.90;80.00;;;;;;4988378;28;20027;-62
2022/04/24 12:52:01;;;;;;;9.13;3.65;;;20.30;81.20;;;;;;4986005;28;20041;-63
2022/04/24 12:54:27;;;;;;;8.00;3.00;;;20.40;78.80;;;;;;4983531;28;20517;-63
2022/04/24 12:56:53;;;;;;;9.55;3.30;;;20.00;80.00;;;;;;4982224;28;20117;-63
2022/04/24 12:59:18;;;;;;;9.82;4.10;;;20.20;80.00;;;;;;4980155;28;20035;-63